Time;durP1;ratioP1;P1;durP2;ratioP2;P2;SDS_P1;SDS_P2;PMS_P1;PMS_P2;Temp;Humidity;BMP_temperature;BMP_pressure;BME280_temperature;BME280_humidity;BME280_pressure;Samples;Min_cycle;Max_cycle;Signal;HPM_P1;HPM_P2
2023/03/21 00:02:02;;;;;;;9.97;7.30;;;12.90;99.90;;;;;;4908400;29;20195;-78
2023/03/21 00:04:28;;;;;;;9.83;7.47;;;12.90;99.90;;;;;;4903938;29;20227;-78
2023/03/21 00:06:54;;;;;;;10.50;7.20;;;13.00;99.90;;;;;;4915847;29;20420;-78
2023/03/21 00:09:20;;;;;;;9.00;7.33;;;13.00;99.90;;;;;;4916493;29;20214;-78
2023/03/21 00:11:47;;;;;;;11.20;6.80;;;13.00;99.90;;;;;;4909484;29;20195;-78
2023/03/21 00:14:17;;;;;;;9.93;7.40;;;13.00;99.90;;;;;;4918655;29;20508;-77
2023/03/21 00:16:44;;;;;;;10.90;7.33;;;13.10;99.90;;;;;;4900591;29;20964;-78
2023/03/21 00:19:10;;;;;;;10.70;6.60;;;13.10;99.90;;;;;;4895823;29;20420;-78
2023/03/21 00:21:37;;;;;;;12.90;7.90;;;13.00;99.90;;;;;;4906127;29;20472;-78
2023/03/21 00:24:05;;;;;;;8.63;7.00;;;13.10;99.90;;;;;;4914651;29;20463;-78
2023/03/21 00:26:31;;;;;;;9.80;7.00;;;13.10;99.90;;;;;;4910793;29;20433;-77
2023/03/21 00:28:57;;;;;;;10.33;6.97;;;13.10;99.90;;;;;;4914041;29;20434;-78
2023/03/21 00:31:23;;;;;;;12.10;7.87;;;13.10;99.90;;;;;;4915246;29;20930;-79
2023/03/21 00:33:49;;;;;;;8.30;7.47;;;13.20;99.90;;;;;;4914566;29;20193;-78
2023/03/21 00:36:15;;;;;;;12.00;8.07;;;13.10;99.90;;;;;;4914805;29;20290;-78
2023/03/21 00:38:41;;;;;;;7.70;6.73;;;13.10;99.90;;;;;;4914922;29;20591;-78
2023/03/21 00:41:09;;;;;;;9.80;7.40;;;13.10;99.90;;;;;;4915914;29;20854;-78
2023/03/21 00:43:36;;;;;;;10.40;7.50;;;13.10;99.90;;;;;;4915225;29;20465;-77
2023/03/21 00:46:02;;;;;;;9.00;7.00;;;13.10;99.90;;;;;;4916281;29;20556;-77
2023/03/21 00:48:29;;;;;;;11.93;7.80;;;13.10;99.90;;;;;;4917094;29;20462;-78
2023/03/21 00:50:58;;;;;;;7.73;6.73;;;13.10;99.90;;;;;;4909378;29;20911;-78
2023/03/21 00:53:24;;;;;;;11.73;7.27;;;13.10;99.90;;;;;;4909291;29;20414;-79
2023/03/21 00:55:50;;;;;;;11.23;7.17;;;13.20;99.90;;;;;;4899659;29;20512;-74
2023/03/21 00:58:17;;;;;;;10.33;7.43;;;13.10;99.90;;;;;;4900061;29;20431;-77
2023/03/21 01:00:45;;;;;;;7.83;6.80;;;13.10;99.90;;;;;;4900969;29;20556;-76
2023/03/21 01:03:13;;;;;;;15.97;7.93;;;13.10;99.90;;;;;;4917664;29;20421;-77
2023/03/21 01:08:43;;;;;;;13.70;7.30;;;13.00;99.90;;;;;;4906685;29;20433;-78
2023/03/21 01:11:13;;;;;;;8.90;7.93;;;13.00;99.90;;;;;;4934537;29;20456;-78
2023/03/21 01:13:39;;;;;;;9.37;7.97;;;13.10;99.90;;;;;;4917896;29;20474;-78
2023/03/21 01:16:07;;;;;;;13.40;7.50;;;13.10;99.90;;;;;;4919624;29;20424;-77
2023/03/21 01:18:35;;;;;;;9.43;7.50;;;13.10;99.90;;;;;;4918858;29;20442;-78
2023/03/21 01:21:04;;;;;;;8.40;7.60;;;13.10;99.90;;;;;;4919133;29;20429;-78
2023/03/21 01:23:30;;;;;;;9.53;7.40;;;13.20;99.90;;;;;;4917858;29;20805;-79
2023/03/21 01:25:56;;;;;;;11.07;8.30;;;13.10;99.90;;;;;;4922410;29;20461;-78
2023/03/21 01:28:25;;;;;;;9.40;7.50;;;13.10;99.90;;;;;;4927167;29;20193;-74
2023/03/21 01:30:51;;;;;;;12.17;7.90;;;13.10;99.90;;;;;;4904876;29;20435;-78
2023/03/21 01:33:18;;;;;;;10.90;8.30;;;13.20;99.90;;;;;;4900720;29;20415;-78
2023/03/21 01:35:45;;;;;;;8.80;8.00;;;13.20;99.90;;;;;;4899334;29;20484;-77
2023/03/21 01:38:11;;;;;;;10.97;8.20;;;13.20;99.90;;;;;;4900519;29;20437;-77
2023/03/21 01:40:39;;;;;;;11.50;8.07;;;13.20;99.90;;;;;;4898500;29;20460;-77
2023/03/21 01:43:18;;;;;;;8.50;7.60;;;13.20;99.90;;;;;;4914082;29;20563;-77
2023/03/21 01:46:09;;;;;;;11.63;8.20;;;13.20;99.90;;;;;;4898930;29;20660;-77
2023/03/21 01:48:41;;;;;;;10.60;9.00;;;13.20;99.90;;;;;;4913592;29;20435;-77
2023/03/21 01:51:11;;;;;;;12.83;8.37;;;13.20;99.90;;;;;;4899943;29;20429;-77
2023/03/21 01:53:38;;;;;;;11.30;7.90;;;13.20;99.90;;;;;;4901992;29;20464;-77
2023/03/21 01:56:12;;;;;;;9.90;8.40;;;13.20;99.90;;;;;;4918621;29;20436;-77
2023/03/21 01:58:40;;;;;;;11.70;7.73;;;13.20;99.90;;;;;;4915002;29;20432;-77
2023/03/21 02:01:06;;;;;;;8.70;7.77;;;13.10;99.90;;;;;;4903749;29;20438;-77
2023/03/21 02:03:48;;;;;;;11.80;7.80;;;13.10;99.90;;;;;;4916563;29;20414;-78
2023/03/21 02:06:36;;;;;;;11.30;7.67;;;13.20;99.90;;;;;;4901632;29;20449;-77
2023/03/21 02:09:07;;;;;;;10.47;8.47;;;13.20;99.90;;;;;;4917748;29;20940;-77
2023/03/21 02:11:35;;;;;;;9.00;8.10;;;13.20;99.90;;;;;;4917422;29;20869;-77
2023/03/21 02:14:01;;;;;;;8.33;7.40;;;13.10;99.90;;;;;;4918205;29;20824;-77
2023/03/21 02:16:54;;;;;;;8.57;7.63;;;13.10;99.90;;;;;;4916273;29;20950;-79
2023/03/21 02:19:22;;;;;;;9.83;7.70;;;13.20;99.90;;;;;;4915360;29;20437;-77
2023/03/21 02:22:20;;;;;;;9.70;8.70;;;13.10;99.90;;;;;;4916598;29;20470;-77
2023/03/21 02:25:22;;;;;;;8.90;7.90;;;13.10;99.90;;;;;;4917162;29;20449;-77
2023/03/21 02:27:53;;;;;;;9.10;8.20;;;13.20;99.90;;;;;;4917112;29;20433;-77
2023/03/21 02:30:25;;;;;;;10.67;7.80;;;13.20;99.90;;;;;;4914323;29;20432;-77
2023/03/21 02:33:08;;;;;;;11.23;8.40;;;13.20;99.90;;;;;;4898457;29;20444;-77
2023/03/21 02:35:40;;;;;;;10.90;9.40;;;13.20;99.90;;;;;;4898302;29;20433;-77
2023/03/21 02:38:50;;;;;;;14.23;8.80;;;13.20;99.90;;;;;;4899230;29;20428;-77
2023/03/21 02:41:24;;;;;;;13.50;9.53;;;13.10;99.90;;;;;;4896230;29;20498;-77
2023/03/21 02:44:01;;;;;;;13.17;9.13;;;13.10;99.90;;;;;;4915641;29;20510;-77
2023/03/21 02:46:50;;;;;;;12.20;9.20;;;13.10;99.90;;;;;;4918009;29;20520;-78
2023/03/21 02:49:21;;;;;;;11.40;8.80;;;13.10;99.90;;;;;;4916975;29;20476;-77
2023/03/21 02:51:49;;;;;;;15.30;9.43;;;13.10;99.90;;;;;;4917077;29;20811;-76
2023/03/21 02:54:20;;;;;;;11.73;9.07;;;13.10;99.90;;;;;;4915482;29;20499;-76
2023/03/21 02:56:47;;;;;;;12.87;8.97;;;13.10;99.90;;;;;;4916073;29;20436;-76
2023/03/21 02:59:16;;;;;;;10.80;9.77;;;13.00;99.90;;;;;;4915944;29;20441;-76
2023/03/21 03:01:42;;;;;;;10.40;9.30;;;13.00;99.90;;;;;;4897228;29;20493;-76
2023/03/21 03:04:23;;;;;;;9.53;8.27;;;13.10;99.90;;;;;;4910379;29;20473;-76
2023/03/21 03:06:59;;;;;;;10.37;8.23;;;13.10;99.90;;;;;;4916337;29;21086;-76
2023/03/21 03:09:40;;;;;;;10.10;9.10;;;13.10;99.90;;;;;;4915507;29;20424;-76
2023/03/21 03:12:33;;;;;;;10.53;9.07;;;13.00;99.90;;;;;;4915111;29;20456;-76
2023/03/21 03:15:16;;;;;;;9.77;8.50;;;13.10;99.90;;;;;;4916674;29;20444;-77
2023/03/21 03:17:56;;;;;;;15.13;9.43;;;13.10;99.90;;;;;;4916405;29;20400;-76
2023/03/21 03:20:54;;;;;;;12.70;9.50;;;13.10;99.90;;;;;;4917115;29;20453;-77
2023/03/21 03:24:00;;;;;;;13.73;9.03;;;13.10;99.90;;;;;;4916824;29;20764;-77
2023/03/21 03:26:35;;;;;;;11.00;8.90;;;13.10;99.90;;;;;;4894206;29;20834;-77
2023/03/21 03:29:12;;;;;;;10.50;9.00;;;13.10;99.90;;;;;;4912191;29;20440;-77
2023/03/21 03:31:52;;;;;;;13.60;9.50;;;13.00;99.90;;;;;;4915372;29;20492;-77
2023/03/21 03:34:23;;;;;;;13.83;10.30;;;13.00;99.90;;;;;;4916988;29;20407;-77
2023/03/21 03:36:55;;;;;;;14.07;9.50;;;13.10;99.90;;;;;;4914233;29;20437;-77
2023/03/21 03:39:28;;;;;;;12.93;10.10;;;13.00;99.90;;;;;;4916947;29;20437;-77
2023/03/21 03:42:00;;;;;;;10.80;9.50;;;13.00;99.90;;;;;;4907925;29;20445;-77
2023/03/21 03:44:27;;;;;;;13.87;9.63;;;13.00;99.90;;;;;;4897714;29;20482;-77
2023/03/21 03:46:59;;;;;;;12.07;10.70;;;13.00;99.90;;;;;;4896688;29;20419;-77
2023/03/21 03:49:30;;;;;;;13.90;10.43;;;13.00;99.90;;;;;;4897729;29;20425;-77
2023/03/21 03:52:09;;;;;;;12.40;10.73;;;13.00;99.90;;;;;;4902693;29;20480;-77
2023/03/21 03:54:42;;;;;;;15.37;11.27;;;13.00;99.90;;;;;;4915131;29;20448;-79
2023/03/21 03:57:08;;;;;;;15.27;10.27;;;12.90;99.90;;;;;;4916431;29;20910;-77
2023/03/21 03:59:38;;;;;;;14.10;11.57;;;13.00;99.90;;;;;;4916004;29;20417;-78
2023/03/21 04:02:04;;;;;;;15.10;11.00;;;12.90;99.90;;;;;;4915464;29;20458;-77
2023/03/21 04:04:30;;;;;;;15.00;10.47;;;12.90;99.90;;;;;;4916307;29;21019;-77
2023/03/21 04:06:56;;;;;;;20.13;11.73;;;13.00;99.90;;;;;;4915595;29;20428;-77
2023/03/21 04:09:22;;;;;;;14.83;10.53;;;13.00;99.90;;;;;;4916302;29;20429;-77
2023/03/21 04:11:48;;;;;;;16.30;10.47;;;13.00;99.90;;;;;;4913358;29;20432;-77
2023/03/21 04:14:14;;;;;;;13.80;11.43;;;13.00;99.90;;;;;;4914176;29;20419;-76
2023/03/21 04:16:40;;;;;;;12.00;10.77;;;13.00;99.90;;;;;;4915115;29;20476;-77
2023/03/21 04:19:06;;;;;;;17.07;11.37;;;13.00;99.90;;;;;;4916472;29;20457;-77
2023/03/21 04:21:31;;;;;;;15.73;10.70;;;13.00;99.90;;;;;;4914524;29;20432;-77
2023/03/21 04:23:57;;;;;;;15.57;9.67;;;13.00;99.90;;;;;;4914606;29;20555;-77
2023/03/21 04:26:23;;;;;;;13.33;9.80;;;13.00;99.90;;;;;;4915398;29;20193;-77
2023/03/21 04:28:50;;;;;;;16.60;10.97;;;13.00;99.90;;;;;;4915171;29;20530;-77
2023/03/21 04:31:16;;;;;;;16.80;10.57;;;13.00;99.90;;;;;;4916240;29;20414;-77
2023/03/21 04:33:43;;;;;;;12.40;9.83;;;12.90;99.90;;;;;;4913528;29;20434;-76
2023/03/21 04:36:25;;;;;;;12.50;9.10;;;12.90;99.90;;;;;;4916053;29;20511;-77
2023/03/21 04:38:51;;;;;;;12.40;10.03;;;12.90;99.90;;;;;;4898529;29;20446;-77
2023/03/21 04:41:17;;;;;;;12.80;9.70;;;12.90;99.90;;;;;;4915850;29;20423;-77
2023/03/21 04:43:44;;;;;;;15.33;11.00;;;12.90;99.90;;;;;;4913696;29;20464;-77
2023/03/21 04:46:10;;;;;;;18.27;9.70;;;12.90;99.90;;;;;;4914558;29;20953;-77
2023/03/21 04:48:36;;;;;;;13.50;9.77;;;12.90;99.90;;;;;;4915565;29;20523;-79
2023/03/21 04:51:02;;;;;;;13.70;10.70;;;12.90;99.90;;;;;;4913611;29;20459;-78
2023/03/21 04:53:28;;;;;;;11.87;10.00;;;12.90;99.90;;;;;;4905925;29;20573;-77
2023/03/21 04:55:54;;;;;;;11.17;9.60;;;13.00;99.90;;;;;;4915161;29;20438;-76
2023/03/21 04:58:19;;;;;;;11.63;9.80;;;12.90;99.90;;;;;;4917232;29;20180;-77
2023/03/21 05:00:46;;;;;;;12.03;9.40;;;13.00;99.90;;;;;;4934164;29;20547;-77
2023/03/21 05:03:18;;;;;;;10.90;9.80;;;13.00;99.90;;;;;;4933550;29;20188;-77
2023/03/21 05:05:45;;;;;;;15.03;8.90;;;13.00;99.90;;;;;;4934038;29;20455;-77
2023/03/21 05:08:12;;;;;;;9.60;8.60;;;13.00;99.90;;;;;;4916852;29;20457;-76
2023/03/21 05:10:40;;;;;;;14.63;9.60;;;13.00;99.90;;;;;;4915718;29;20429;-78
2023/03/21 05:13:06;;;;;;;14.63;9.50;;;13.00;99.90;;;;;;4898184;29;20448;-76
2023/03/21 05:15:31;;;;;;;15.00;10.00;;;13.00;99.90;;;;;;4896855;29;20428;-77
2023/03/21 05:18:09;;;;;;;9.60;8.60;;;13.10;99.90;;;;;;4911564;29;20192;-77
2023/03/21 05:20:42;;;;;;;11.13;8.90;;;13.00;99.90;;;;;;4915791;29;20162;-75
2023/03/21 05:23:11;;;;;;;11.20;8.90;;;13.00;99.90;;;;;;4913783;29;20443;-76
2023/03/21 05:25:38;;;;;;;10.00;8.90;;;13.10;99.90;;;;;;4915258;29;20469;-78
2023/03/21 05:28:07;;;;;;;11.83;9.87;;;13.10;99.90;;;;;;4914974;29;20465;-76
2023/03/21 05:30:32;;;;;;;14.67;10.03;;;13.00;99.90;;;;;;4915497;29;20491;-77
2023/03/21 05:32:59;;;;;;;11.60;9.10;;;13.00;99.90;;;;;;4916887;29;20427;-76
2023/03/21 05:35:24;;;;;;;10.53;8.97;;;13.00;99.90;;;;;;4919177;29;20449;-76
2023/03/21 05:37:50;;;;;;;13.40;8.10;;;13.10;99.90;;;;;;4916967;29;20444;-76
2023/03/21 05:40:16;;;;;;;11.20;8.47;;;13.00;99.90;;;;;;4918868;29;20535;-76
2023/03/21 05:42:42;;;;;;;11.80;9.30;;;12.90;99.90;;;;;;4932094;29;20499;-78
2023/03/21 05:45:08;;;;;;;9.23;8.33;;;12.90;99.90;;;;;;4918995;29;20247;-77
2023/03/21 05:47:34;;;;;;;10.83;8.30;;;12.90;99.90;;;;;;4917675;29;20193;-77
2023/03/21 05:49:59;;;;;;;11.70;7.93;;;12.90;99.90;;;;;;4917879;29;20417;-77
2023/03/21 05:52:25;;;;;;;11.13;8.80;;;12.90;99.90;;;;;;4918225;29;20191;-77
2023/03/21 05:54:51;;;;;;;10.37;8.50;;;12.90;99.90;;;;;;4918430;29;20183;-77
2023/03/21 05:57:18;;;;;;;11.10;8.53;;;13.00;99.90;;;;;;4933666;29;20176;-77
2023/03/21 05:59:44;;;;;;;13.57;8.63;;;13.00;99.90;;;;;;4918206;29;20185;-77
2023/03/21 06:02:10;;;;;;;10.43;8.70;;;13.00;99.90;;;;;;4901868;29;20419;-76
2023/03/21 06:04:36;;;;;;;10.13;8.37;;;13.00;99.90;;;;;;4918211;29;20843;-76
2023/03/21 06:07:02;;;;;;;12.00;9.83;;;12.90;99.90;;;;;;4917459;29;20418;-76
2023/03/21 06:09:28;;;;;;;11.13;8.93;;;13.00;99.90;;;;;;4918785;29;20449;-76
2023/03/21 06:11:55;;;;;;;12.73;9.73;;;13.00;99.90;;;;;;4917278;29;20422;-76
2023/03/21 06:14:22;;;;;;;11.07;9.53;;;13.10;99.90;;;;;;4918325;29;20418;-76
2023/03/21 06:16:48;;;;;;;9.50;8.60;;;13.00;99.90;;;;;;4917451;29;20416;-76
2023/03/21 06:19:14;;;;;;;10.90;8.40;;;13.10;99.90;;;;;;4918511;29;20906;-76
2023/03/21 06:21:40;;;;;;;10.87;8.10;;;13.20;99.90;;;;;;4918071;29;20191;-77
2023/03/21 06:24:06;;;;;;;10.50;8.40;;;13.20;99.90;;;;;;4906049;29;20435;-76
2023/03/21 06:26:32;;;;;;;9.07;8.20;;;13.20;99.90;;;;;;4901611;29;20441;-75
2023/03/21 06:28:58;;;;;;;11.00;8.07;;;13.20;99.90;;;;;;4898359;29;20426;-75
2023/03/21 06:31:25;;;;;;;8.83;7.87;;;13.30;99.90;;;;;;4899133;29;20178;-76
2023/03/21 06:33:51;;;;;;;10.00;8.37;;;13.20;99.90;;;;;;4898022;29;20937;-77
2023/03/21 06:36:18;;;;;;;10.50;8.50;;;13.20;99.90;;;;;;4898733;29;20449;-77
2023/03/21 06:38:45;;;;;;;11.33;8.97;;;13.20;99.90;;;;;;4914881;29;20506;-77
2023/03/21 06:41:12;;;;;;;10.27;9.17;;;13.10;99.90;;;;;;4916187;29;20432;-76
2023/03/21 06:43:38;;;;;;;8.40;7.57;;;13.20;99.90;;;;;;4914835;29;20575;-76
2023/03/21 06:46:04;;;;;;;10.93;9.20;;;13.20;99.90;;;;;;4916323;29;20476;-77
2023/03/21 06:48:31;;;;;;;12.17;8.70;;;13.10;99.90;;;;;;4932515;29;20425;-77
2023/03/21 06:50:57;;;;;;;11.77;8.60;;;13.00;99.90;;;;;;4921996;29;20428;-76
2023/03/21 06:53:26;;;;;;;11.30;8.80;;;12.90;99.90;;;;;;4916429;29;20776;-77
2023/03/21 06:55:53;;;;;;;9.70;8.70;;;13.00;99.90;;;;;;4913787;29;20431;-76
2023/03/21 06:58:19;;;;;;;10.27;8.90;;;13.10;99.90;;;;;;4917626;29;20202;-75
2023/03/21 07:00:45;;;;;;;18.00;11.93;;;13.20;99.90;;;;;;4916280;29;20517;-75
2023/03/21 07:03:12;;;;;;;12.63;9.93;;;13.20;99.90;;;;;;4917756;29;20504;-76
2023/03/21 07:05:39;;;;;;;14.83;10.70;;;13.20;99.90;;;;;;4917750;29;20460;-76
2023/03/21 07:08:07;;;;;;;10.00;8.20;;;13.10;99.90;;;;;;4916351;29;20430;-76
2023/03/21 07:10:32;;;;;;;9.07;7.77;;;13.10;99.90;;;;;;4917612;29;20422;-76
2023/03/21 07:12:59;;;;;;;8.40;7.50;;;13.10;99.90;;;;;;4916314;29;20439;-76
2023/03/21 07:15:25;;;;;;;11.37;8.47;;;13.00;99.90;;;;;;4915484;29;20247;-77
2023/03/21 07:17:51;;;;;;;13.33;8.13;;;13.00;99.90;;;;;;4915276;29;20921;-76
2023/03/21 07:20:17;;;;;;;9.70;7.10;;;13.00;99.90;;;;;;4913373;29;20423;-75
2023/03/21 07:22:43;;;;;;;10.00;7.10;;;12.80;99.90;;;;;;4908863;29;20414;-76
2023/03/21 07:25:09;;;;;;;9.10;8.20;;;12.80;99.90;;;;;;4912922;29;20482;-76
2023/03/21 07:27:35;;;;;;;9.00;7.90;;;12.80;99.90;;;;;;4916701;29;20430;-76
2023/03/21 07:30:03;;;;;;;10.20;7.93;;;12.80;99.90;;;;;;4916597;29;20417;-76
2023/03/21 07:32:32;;;;;;;13.33;7.53;;;12.80;99.90;;;;;;4914559;29;20423;-75
2023/03/21 07:34:59;;;;;;;7.53;6.83;;;12.80;99.90;;;;;;4897372;29;20418;-76
2023/03/21 07:37:25;;;;;;;9.13;8.23;;;12.70;99.90;;;;;;4912734;29;20918;-76
2023/03/21 07:39:52;;;;;;;8.50;7.70;;;12.80;99.90;;;;;;4896480;29;20424;-76
2023/03/21 07:42:19;;;;;;;12.90;8.63;;;12.70;99.90;;;;;;4898644;29;20434;-78
2023/03/21 07:44:45;;;;;;;10.67;8.00;;;12.80;99.90;;;;;;4898337;29;20473;-78
2023/03/21 07:47:10;;;;;;;12.23;8.70;;;12.80;99.90;;;;;;4898195;29;20474;-79
2023/03/21 07:49:36;;;;;;;9.03;6.93;;;12.90;99.90;;;;;;4916558;29;20424;-80
2023/03/21 07:52:05;;;;;;;10.67;7.70;;;12.90;99.90;;;;;;4914978;29;20184;-78
2023/03/21 07:54:31;;;;;;;9.30;7.00;;;12.80;99.90;;;;;;4915522;29;20772;-77
2023/03/21 07:56:57;;;;;;;8.17;7.40;;;12.80;99.90;;;;;;4916250;29;20426;-78
2023/03/21 07:59:23;;;;;;;12.00;7.30;;;12.70;99.90;;;;;;4920406;29;20751;-77
2023/03/21 08:01:48;;;;;;;11.90;7.50;;;12.70;99.90;;;;;;4916820;29;20644;-78
2023/03/21 08:04:14;;;;;;;8.40;7.47;;;12.70;99.90;;;;;;4901777;29;20434;-78
2023/03/21 08:06:40;;;;;;;11.37;7.23;;;12.70;99.90;;;;;;4915471;29;20191;-78
2023/03/21 08:09:06;;;;;;;10.53;7.80;;;12.60;99.90;;;;;;4916245;29;20210;-78
2023/03/21 08:11:31;;;;;;;10.07;8.17;;;12.50;99.90;;;;;;4917218;29;20184;-78
2023/03/21 08:13:59;;;;;;;11.80;9.50;;;12.50;99.90;;;;;;4916575;29;20562;-78
2023/03/21 08:16:25;;;;;;;11.77;8.30;;;12.50;99.90;;;;;;4914905;29;20183;-79
2023/03/21 08:18:51;;;;;;;8.20;7.40;;;12.50;99.90;;;;;;4905155;29;20445;-78
2023/03/21 08:21:16;;;;;;;8.43;7.63;;;12.60;99.90;;;;;;4913091;29;20463;-78
2023/03/21 08:23:42;;;;;;;8.23;7.43;;;12.60;99.90;;;;;;4912352;29;20196;-78
2023/03/21 08:26:09;;;;;;;10.57;9.00;;;12.60;99.90;;;;;;4913115;29;20222;-78
2023/03/21 08:28:35;;;;;;;10.20;8.60;;;12.70;99.90;;;;;;4915502;29;20179;-77
2023/03/21 08:31:10;;;;;;;10.03;9.03;;;12.60;99.90;;;;;;4914627;29;20431;-78
2023/03/21 08:33:36;;;;;;;8.30;7.57;;;12.70;99.90;;;;;;4899504;29;20960;-77
2023/03/21 08:36:02;;;;;;;9.73;8.47;;;12.80;99.90;;;;;;4914869;29;20435;-77
2023/03/21 08:38:30;;;;;;;11.30;9.33;;;12.80;99.90;;;;;;4915133;29;20758;-77
2023/03/21 08:40:56;;;;;;;10.33;9.20;;;12.80;99.90;;;;;;4913444;29;20446;-78
2023/03/21 08:43:22;;;;;;;11.43;8.83;;;12.50;99.90;;;;;;4914671;29;20558;-78
2023/03/21 08:45:51;;;;;;;11.80;9.27;;;12.50;99.90;;;;;;4916282;29;20208;-77
2023/03/21 08:48:17;;;;;;;10.97;9.87;;;12.60;99.90;;;;;;4915947;29;20423;-77
2023/03/21 08:50:43;;;;;;;11.70;10.57;;;12.30;99.90;;;;;;4898489;29;20517;-77
2023/03/21 08:53:09;;;;;;;13.83;10.73;;;12.40;99.90;;;;;;4914252;29;20966;-77
2023/03/21 08:55:35;;;;;;;13.23;10.87;;;12.20;99.90;;;;;;4914973;29;20803;-77
2023/03/21 08:58:01;;;;;;;12.20;10.77;;;12.20;99.90;;;;;;4915598;29;20175;-78
2023/03/21 09:00:27;;;;;;;11.73;9.10;;;12.30;99.90;;;;;;4898857;29;20184;-78
2023/03/21 09:02:53;;;;;;;13.30;8.80;;;12.40;99.90;;;;;;4903833;29;20585;-75
2023/03/21 09:05:20;;;;;;;13.53;8.70;;;12.30;99.90;;;;;;4896183;29;20467;-75
2023/03/21 09:07:48;;;;;;;9.30;8.33;;;12.30;99.90;;;;;;4900660;29;20576;-75
2023/03/21 09:10:18;;;;;;;9.97;7.77;;;12.50;99.90;;;;;;4913630;29;20446;-75
2023/03/21 09:12:44;;;;;;;9.10;7.70;;;12.60;99.90;;;;;;4919574;29;20418;-75
2023/03/21 09:15:13;;;;;;;7.20;6.50;;;12.70;99.90;;;;;;4919243;29;20793;-75
2023/03/21 09:17:42;;;;;;;10.23;7.43;;;12.60;99.90;;;;;;4917751;29;20519;-75
2023/03/21 09:20:17;;;;;;;7.50;6.70;;;12.70;99.90;;;;;;4918925;29;20422;-75
2023/03/21 09:22:48;;;;;;;9.43;6.23;;;12.60;99.90;;;;;;4919558;29;20754;-76
2023/03/21 09:25:15;;;;;;;6.00;5.40;;;12.60;99.90;;;;;;4917684;29;20479;-75
2023/03/21 09:27:44;;;;;;;7.57;6.40;;;12.70;99.90;;;;;;4919811;29;20419;-75
2023/03/21 09:30:16;;;;;;;7.57;6.87;;;12.70;99.90;;;;;;4918820;29;20415;-75
2023/03/21 09:32:47;;;;;;;10.83;6.73;;;12.70;99.90;;;;;;4918033;29;20424;-75
2023/03/21 09:35:17;;;;;;;9.10;7.47;;;12.70;99.90;;;;;;4918717;29;20489;-76
2023/03/21 09:37:46;;;;;;;8.13;7.43;;;12.80;99.90;;;;;;4918213;29;20431;-75
2023/03/21 09:40:40;;;;;;;8.70;6.93;;;12.90;99.90;;;;;;4918822;29;20898;-75
2023/03/21 09:43:48;;;;;;;7.87;6.70;;;13.00;99.90;;;;;;4918287;29;20436;-76
2023/03/21 09:46:40;;;;;;;10.13;7.57;;;12.90;99.90;;;;;;4918313;29;20813;-75
2023/03/21 09:49:30;;;;;;;8.33;7.50;;;13.00;99.90;;;;;;4918553;29;20411;-76
2023/03/21 09:51:58;;;;;;;8.77;7.87;;;13.00;99.90;;;;;;4917916;29;20469;-76
2023/03/21 09:54:39;;;;;;;8.37;7.60;;;13.00;99.90;;;;;;4917591;29;20509;-75
2023/03/21 09:57:32;;;;;;;9.97;8.17;;;13.00;99.90;;;;;;4918504;29;20467;-75
2023/03/21 10:00:15;;;;;;;7.33;6.70;;;13.00;99.90;;;;;;4918527;29;20498;-76
2023/03/21 10:02:50;;;;;;;7.90;7.20;;;12.90;99.90;;;;;;4909643;29;20426;-76
2023/03/21 10:05:25;;;;;;;8.97;6.70;;;12.90;99.90;;;;;;4917295;29;20495;-76
2023/03/21 10:07:57;;;;;;;8.13;7.43;;;12.80;99.90;;;;;;4918452;29;20886;-76
2023/03/21 10:10:46;;;;;;;7.83;7.23;;;12.90;99.90;;;;;;4918307;29;20428;-76
2023/03/21 10:13:21;;;;;;;5.83;5.33;;;12.90;99.90;;;;;;4918278;29;20421;-76
2023/03/21 10:15:48;;;;;;;6.20;5.63;;;12.90;99.90;;;;;;4915358;29;20503;-76
2023/03/21 10:18:22;;;;;;;5.87;5.37;;;12.70;99.90;;;;;;4901541;29;20721;-75
2023/03/21 10:20:50;;;;;;;5.63;4.93;;;12.70;99.90;;;;;;4902369;29;20821;-76
2023/03/21 10:23:17;;;;;;;5.10;4.50;;;12.70;99.90;;;;;;4904557;29;20417;-76
2023/03/21 10:25:48;;;;;;;4.50;4.20;;;12.80;99.90;;;;;;4907626;29;20462;-76
2023/03/21 10:28:18;;;;;;;5.60;5.10;;;12.70;99.90;;;;;;4906711;29;20441;-76
2023/03/21 10:30:56;;;;;;;7.10;6.50;;;12.70;99.90;;;;;;4908415;29;20880;-75
2023/03/21 10:33:36;;;;;;;6.13;5.20;;;12.70;99.90;;;;;;4907173;29;20858;-76
2023/03/21 10:36:07;;;;;;;5.63;5.00;;;12.60;99.90;;;;;;4906300;29;20413;-76
2023/03/21 10:38:33;;;;;;;5.70;5.20;;;12.50;99.90;;;;;;4906624;29;20405;-76
2023/03/21 10:40:59;;;;;;;6.40;5.80;;;12.60;99.90;;;;;;4905780;29;20407;-75
2023/03/21 10:43:25;;;;;;;5.77;5.23;;;12.70;99.90;;;;;;4905918;29;20490;-76
2023/03/21 10:45:52;;;;;;;6.13;5.50;;;12.60;99.90;;;;;;4906875;29;20501;-76
2023/03/21 10:48:19;;;;;;;6.10;5.43;;;12.60;99.90;;;;;;4908103;29;20189;-76
2023/03/21 10:50:47;;;;;;;6.17;5.57;;;12.50;99.90;;;;;;4906584;29;20465;-76
2023/03/21 10:53:30;;;;;;;6.40;5.90;;;12.60;99.90;;;;;;4908355;29;20425;-76
2023/03/21 10:55:59;;;;;;;7.20;6.50;;;12.60;99.90;;;;;;4907820;29;20952;-78
2023/03/21 10:58:29;;;;;;;8.87;5.67;;;12.70;99.90;;;;;;4907941;29;20486;-76
2023/03/21 11:01:06;;;;;;;7.03;6.30;;;12.80;99.90;;;;;;4905483;29;20769;-77
2023/03/21 11:03:37;;;;;;;6.60;5.83;;;12.70;99.90;;;;;;4918734;29;20421;-75
2023/03/21 11:06:13;;;;;;;7.90;6.60;;;12.80;99.90;;;;;;4906748;29;20496;-76
2023/03/21 11:08:53;;;;;;;7.50;5.83;;;12.90;99.90;;;;;;4904720;29;20959;-77
2023/03/21 11:11:40;;;;;;;5.30;5.00;;;12.90;99.90;;;;;;4907868;29;20414;-76
2023/03/21 11:14:22;;;;;;;6.40;5.90;;;12.70;99.90;;;;;;4906590;29;20435;-77
2023/03/21 11:16:49;;;;;;;6.33;5.70;;;12.80;99.90;;;;;;4908935;29;20841;-77
2023/03/21 11:19:18;;;;;;;6.30;5.70;;;12.70;99.90;;;;;;4907073;29;20425;-77
2023/03/21 11:21:44;;;;;;;6.40;5.40;;;12.80;99.90;;;;;;4908403;29;20414;-77
2023/03/21 11:24:14;;;;;;;6.67;5.03;;;12.90;99.90;;;;;;4907150;29;20905;-74
2023/03/21 11:26:43;;;;;;;6.57;5.67;;;13.00;99.90;;;;;;4906063;29;20466;-75
2023/03/21 11:29:33;;;;;;;6.43;5.27;;;13.00;99.90;;;;;;4914048;29;20444;-77
2023/03/21 11:32:19;;;;;;;5.80;4.50;;;13.10;99.90;;;;;;4908691;29;20845;-79
2023/03/21 11:34:57;;;;;;;7.07;5.10;;;13.10;99.90;;;;;;4906329;29;20433;-79
2023/03/21 11:37:31;;;;;;;5.23;4.73;;;13.10;99.90;;;;;;4908643;29;20406;-78
2023/03/21 11:40:20;;;;;;;6.00;5.40;;;13.30;99.90;;;;;;4904346;29;20440;-80
2023/03/21 11:42:51;;;;;;;5.33;4.77;;;13.20;99.90;;;;;;4903115;29;20460;-78
2023/03/21 11:45:25;;;;;;;5.20;4.60;;;13.20;99.90;;;;;;4905149;29;20461;-79
2023/03/21 11:47:54;;;;;;;5.97;4.97;;;13.30;99.90;;;;;;4927695;29;20432;-78
2023/03/21 11:50:20;;;;;;;6.10;5.30;;;13.40;99.90;;;;;;4916116;29;20425;-78
2023/03/21 11:53:07;;;;;;;5.07;4.50;;;13.50;99.90;;;;;;4916063;29;20440;-79
2023/03/21 11:55:58;;;;;;;4.70;4.30;;;13.30;99.90;;;;;;4916129;29;20181;-77
2023/03/21 11:58:45;;;;;;;6.17;4.70;;;13.30;99.90;;;;;;4905419;29;20462;-79
2023/03/21 12:01:21;;;;;;;5.50;5.10;;;13.40;99.90;;;;;;4914055;29;20413;-78
2023/03/21 12:04:02;;;;;;;5.80;5.37;;;13.40;99.90;;;;;;4915478;29;20420;-78
2023/03/21 12:06:38;;;;;;;9.37;4.93;;;13.30;99.90;;;;;;4916473;29;20476;-79
2023/03/21 12:09:27;;;;;;;6.00;4.70;;;13.30;99.90;;;;;;4916331;29;20409;-79
2023/03/21 12:12:12;;;;;;;4.80;4.50;;;13.40;99.90;;;;;;4917116;29;20521;-78
2023/03/21 12:14:50;;;;;;;6.07;5.57;;;13.50;99.90;;;;;;4915588;29;20428;-79
2023/03/21 12:17:38;;;;;;;4.90;4.10;;;13.40;99.90;;;;;;4915758;29;20814;-79
2023/03/21 12:20:22;;;;;;;5.20;4.80;;;13.50;99.90;;;;;;4914485;29;20462;-78
2023/03/21 12:23:18;;;;;;;8.23;4.37;;;13.60;99.90;;;;;;4916275;29;20402;-78
2023/03/21 12:26:02;;;;;;;4.63;4.33;;;13.50;99.90;;;;;;4915886;29;20495;-79
2023/03/21 12:28:38;;;;;;;4.97;4.03;;;13.50;99.90;;;;;;4915708;29;20438;-78
2023/03/21 12:31:28;;;;;;;7.00;3.93;;;13.60;99.90;;;;;;4916151;29;20430;-79
2023/03/21 12:34:32;;;;;;;4.20;3.90;;;13.60;99.90;;;;;;4897324;29;20426;-78
2023/03/21 12:36:58;;;;;;;5.30;4.07;;;13.50;99.90;;;;;;4896926;29;20418;-79
2023/03/21 12:39:31;;;;;;;5.43;4.10;;;13.40;99.90;;;;;;4897618;29;20826;-78
2023/03/21 12:42:13;;;;;;;4.57;4.17;;;13.40;99.90;;;;;;4899983;29;20920;-77
2023/03/21 12:45:09;;;;;;;6.13;4.10;;;13.50;99.90;;;;;;4900955;29;20510;-77
2023/03/21 12:47:38;;;;;;;4.83;4.43;;;13.50;99.90;;;;;;4911524;29;20949;-78
2023/03/21 12:50:22;;;;;;;5.60;5.10;;;13.30;99.90;;;;;;4900866;29;20422;-78
2023/03/21 12:52:54;;;;;;;4.60;4.27;;;13.30;99.90;;;;;;4912879;29;20444;-78
2023/03/21 12:55:31;;;;;;;5.63;4.20;;;13.40;99.90;;;;;;4919175;29;20441;-77
2023/03/21 12:58:18;;;;;;;4.53;4.20;;;13.40;99.90;;;;;;4920462;29;20409;-79
2023/03/21 13:00:48;;;;;;;5.27;4.77;;;13.40;99.90;;;;;;4919633;29;20414;-80
2023/03/21 13:03:37;;;;;;;4.40;4.10;;;13.50;99.90;;;;;;4918844;29;20460;-79
2023/03/21 13:06:05;;;;;;;4.30;4.00;;;13.50;99.90;;;;;;4920663;29;20515;-82